Aérodrome :
LOGIN :

S'inscrire | Disclaimer

   EN    FR    IT 

 










Légende :    VFR   VFR Marginal   IFR   IFR Intensif   IFR Très Intensif
Visi : 
Plafond : 
>= 8 km
>= 3000ft
5 à 8 km
1000 à 3000 ft
1500m à 5 km
500 à 1000 ft
800 à 1500m
200 à 500 ft
< 800m
< 200 ft
Symboles :   Orages  Brouillard  Fortes neiges  Fortes précipitations  Vent > 20 kt
SIGMETs :   Divers  Orages  Givrage  Turbulence  Onde Orograph.  Cendres Volcan.







- Altitude de l'aérodrome : 36 ft
- Code IATA : LTQ
- Voir les cartes d'approche


LFAT - Le Touquet

DERNIER METAR :
  • 141830Z AUTO 29005KT 250V320 9999 SCT033/// SCT043/// BKN140/// ///TCU 07/01 Q0990

METARs EXPIRÉS :
  • 141800Z AUTO 26006KT 220V290 9999 FEW035 SCT043 BKN054 07/02 Q0990 TEMPO 26030G55KT 4000 SHRA BKN013CB
  • 141730Z AUTO 27006KT 240V300 9999 SCT044/// BKN050/// OVC064/// ///TCU 06/02 Q0990 TEMPO 26030G55KT 4000 SHRA BKN013CB
  • 141700Z AUTO 28007KT 230V310 9999 -RA FEW031/// SCT037/// BKN043/// ///TCU 06/02 Q0990 TEMPO 26030G55KT 4000 SHRA BKN013CB
  • 141630Z AUTO 29007KT 250V350 9999 BKN034/// BKN042/// BKN048/// ///CB 07/02 Q0990 TEMPO 26030G55KT 4000 SHRA BKN013CB
  • 141600Z AUTO 27007KT 9999 FEW031/// SCT048/// BKN062/// ///CB 07/02 Q0990 TEMPO 26030G55KT 4000 SHRA BKN013CB

TAF TAF LFAT
Valide du 14 à 15h jusqu'au 15 à 00h UTC


141400Z 1415/1424 26015KT 9999 BKN030
TEMPO 1415/1424 26020G35KT 4000 SHRA BKN013CB
PROB30 1415/1424 26030G55KT TSRAGS
ATIS : +33 3 21 06 62 84
Pas de NOTAMs connus pour ce terrain.
2 SIGMETs publiés pour la FIR Paris (LFFF) :
 
Orages noyés dans la masse
LFFF SIGMET 12 VALID 141730/141930 LFPW
LFFF PARIS FIR/UIR EMBD TS OBS AT 1715Z WI N4900 W00015 - N5000 W00015 - N5030 E00100 - N4945 E00130 - N4900 W00015 TOP FL290 MOV ESE 30KT NC=
Turbulence forte
LFFF SIGMET 11 VALID 141700/142000 LFPW
LFFF PARIS FIR/UIR SEV TURB OBS AT 1700Z S OF N4745 FL160/300 STNR NC=



MET'MAP, la Météo Aéronautique d'un coup d'oeil ! - Copyright ORBIFLY Décembre 2007 - Disclaimer

ORBIFLY MET'MAP TEAM :

Programmation & Développement : Alexandra Zaïnal
Conception & Développement : Baudouin d'Aumeries
Co-Programmation & Développement : Marc-Olivier Méhu
Soutien technique & logistique : Manuel Goepfert

Contact : metmap@orbifly.com




SOURCES & CREDITS :

   NOAA